Time;durP1;ratioP1;P1;durP2;ratioP2;P2;SDS_P1;SDS_P2;PMS_P1;PMS_P2;Temp;Humidity;BMP_temperature;BMP_pressure;BME280_temperature;BME280_humidity;BME280_pressure;Samples;Min_cycle;Max_cycle;Signal;HPM_P1;HPM_P2
2022/05/11 00:00:30;;;;;;;2.77;2.17;;;;;;;;;;5054130;28;20185;-65
2022/05/11 00:02:56;;;;;;;2.30;2.10;;;;;;;;;;5053519;28;20194;-66
2022/05/11 00:05:22;;;;;;;2.87;2.20;;;;;;;;;;5054021;28;20257;-68
2022/05/11 00:07:48;;;;;;;2.23;2.03;;;;;;;;;;5036226;28;20205;-66
2022/05/11 00:10:14;;;;;;;3.43;2.20;;;;;;;;;;5054295;28;20185;-67
2022/05/11 00:12:45;;;;;;;3.50;2.30;;;;;;;;;;5035829;28;20202;-65
2022/05/11 00:15:13;;;;;;;3.43;2.37;;;;;;;;;;5054291;28;20178;-67
2022/05/11 00:17:39;;;;;;;3.83;2.53;;;;;;;;;;5035796;28;20214;-67
2022/05/11 00:20:09;;;;;;;4.93;2.60;;;;;;;;;;5035849;28;20209;-65
2022/05/11 00:22:35;;;;;;;2.40;2.00;;;;;;;;;;5035705;28;20198;-66
2022/05/11 00:25:01;;;;;;;3.10;2.30;;;;;;;;;;5035829;28;20170;-66
2022/05/11 00:27:27;;;;;;;4.13;2.00;;;;;;;;;;5053510;28;20567;-66
2022/05/11 00:29:53;;;;;;;2.60;2.27;;;;;;;;;;5054224;28;20182;-66
2022/05/11 00:32:19;;;;;;;4.67;2.20;;;;;;;;;;5035383;28;20191;-65
2022/05/11 00:34:45;;;;;;;3.23;1.97;;;;;;;;;;5035488;28;20178;-66
2022/05/11 00:37:11;;;;;;;4.37;2.47;;;;;;;;;;5053526;28;20248;-66
2022/05/11 00:39:37;;;;;;;4.63;2.73;;;;;;;;;;5053546;28;20174;-67
2022/05/11 00:42:03;;;;;;;4.63;2.40;;;;;;;;;;5053824;28;20182;-67
2022/05/11 00:44:29;;;;;;;3.30;2.20;;;;;;;;;;5036447;28;20209;-66
2022/05/11 00:47:01;;;;;;;2.80;2.50;;;;;;;;;;5054014;28;20174;-66
2022/05/11 00:49:38;;;;;;;5.87;2.30;;;;;;;;;;5054107;28;20213;-66
2022/05/11 00:52:08;;;;;;;4.50;2.30;;;;;;;;;;5053913;28;20166;-67
2022/05/11 00:54:35;;;;;;;3.30;2.40;;;;;;;;;;5053828;28;20243;-66
2022/05/11 00:57:03;;;;;;;3.93;2.30;;;;;;;;;;5053743;28;20293;-67
2022/05/11 00:59:33;;;;;;;5.40;2.37;;;;;;;;;;5054246;28;20224;-66
2022/05/11 01:02:03;;;;;;;5.93;2.60;;;;;;;;;;5035884;28;20183;-66
2022/05/11 01:04:30;;;;;;;3.73;2.70;;;;;;;;;;5053277;28;20200;-67
2022/05/11 01:06:57;;;;;;;3.77;2.97;;;;;;;;;;5053060;28;20206;-67
2022/05/11 01:09:23;;;;;;;4.20;2.30;;;;;;;;;;5053465;28;20197;-66
2022/05/11 01:11:51;;;;;;;4.33;2.90;;;;;;;;;;5053168;28;20193;-66
2022/05/11 01:14:20;;;;;;;3.77;2.87;;;;;;;;;;5054643;28;20202;-66
2022/05/11 01:16:46;;;;;;;4.63;2.77;;;;;;;;;;5039018;28;20209;-66
2022/05/11 01:19:22;;;;;;;5.83;2.93;;;;;;;;;;5056847;28;20175;-66
2022/05/11 01:21:53;;;;;;;4.23;2.90;;;;;;;;;;5039141;28;20175;-66
2022/05/11 01:24:35;;;;;;;3.57;2.73;;;;;;;;;;5039058;28;20224;-66
2022/05/11 01:27:21;;;;;;;3.90;3.23;;;;;;;;;;5056949;28;20649;-67
2022/05/11 01:29:47;;;;;;;4.97;3.00;;;;;;;;;;5056825;28;20174;-66
2022/05/11 01:32:13;;;;;;;5.43;3.20;;;;;;;;;;5056969;28;20179;-65
2022/05/11 01:34:38;;;;;;;4.90;2.77;;;;;;;;;;5056739;28;20269;-66
2022/05/11 01:37:04;;;;;;;6.43;2.77;;;;;;;;;;5056414;28;20229;-66
2022/05/11 01:39:30;;;;;;;3.77;3.10;;;;;;;;;;5056698;28;20221;-66
2022/05/11 01:41:56;;;;;;;6.43;2.90;;;;;;;;;;5056641;28;20635;-66
2022/05/11 01:44:23;;;;;;;3.83;2.93;;;;;;;;;;5056623;28;20741;-66
2022/05/11 01:46:53;;;;;;;4.87;2.77;;;;;;;;;;5056457;28;20210;-66
2022/05/11 01:49:19;;;;;;;4.23;3.30;;;;;;;;;;5056642;28;20171;-66
2022/05/11 01:51:45;;;;;;;4.17;3.17;;;;;;;;;;5038459;28;20182;-65
2022/05/11 01:54:11;;;;;;;7.77;3.47;;;;;;;;;;5056098;28;20202;-66
2022/05/11 01:56:38;;;;;;;3.40;2.70;;;;;;;;;;5056123;28;20263;-66
2022/05/11 01:59:04;;;;;;;4.77;3.00;;;;;;;;;;5038580;28;20190;-66
2022/05/11 02:01:30;;;;;;;4.73;3.30;;;;;;;;;;5056263;28;20268;-65
2022/05/11 02:03:57;;;;;;;5.30;3.00;;;;;;;;;;5056253;28;20217;-65
2022/05/11 02:09:07;;;;;;;4.37;3.37;;;;;;;;;;5056806;28;20182;-65
2022/05/11 02:11:34;;;;;;;6.53;3.37;;;;;;;;;;5038303;28;20182;-65
2022/05/11 02:13:59;;;;;;;6.50;3.37;;;;;;;;;;5056246;28;20202;-65
2022/05/11 02:16:26;;;;;;;3.73;2.90;;;;;;;;;;5056143;28;20632;-67
2022/05/11 02:18:54;;;;;;;4.23;3.20;;;;;;;;;;5038453;28;20206;-65
2022/05/11 02:21:20;;;;;;;4.27;3.40;;;;;;;;;;5039593;28;20181;-65
2022/05/11 02:23:50;;;;;;;4.57;3.67;;;;;;;;;;5040172;28;20690;-66
2022/05/11 02:26:16;;;;;;;4.83;3.63;;;;;;;;;;5069500;28;20205;-65
2022/05/11 02:28:42;;;;;;;4.13;3.33;;;;;;;;;;5072228;28;20661;-65
2022/05/11 02:31:09;;;;;;;8.80;3.57;;;;;;;;;;5055322;28;20198;-65
2022/05/11 02:33:35;;;;;;;4.47;3.30;;;;;;;;;;5075506;28;20258;-66
2022/05/11 02:36:01;;;;;;;5.93;3.40;;;;;;;;;;5056154;28;20178;-65
2022/05/11 02:38:35;;;;;;;6.20;3.37;;;;;;;;;;5065703;28;20227;-65
2022/05/11 02:41:01;;;;;;;4.00;3.43;;;;;;;;;;5056128;28;20155;-66
2022/05/11 02:43:28;;;;;;;4.63;3.60;;;;;;;;;;5037873;28;20588;-64
2022/05/11 02:45:54;;;;;;;6.97;3.43;;;;;;;;;;5055696;28;20591;-66
2022/05/11 02:48:21;;;;;;;3.77;2.87;;;;;;;;;;5052956;22;20324;-63
2022/05/11 02:50:49;;;;;;;4.30;3.50;;;;;;;;;;5055390;28;20186;-63
2022/05/11 02:53:15;;;;;;;6.13;3.50;;;;;;;;;;5037140;28;20270;-64
2022/05/11 02:55:43;;;;;;;4.57;3.50;;;;;;;;;;5055004;28;20225;-64
2022/05/11 02:58:09;;;;;;;8.00;3.30;;;;;;;;;;5054902;28;20272;-64
2022/05/11 03:00:37;;;;;;;5.17;3.33;;;;;;;;;;5037053;28;20182;-64
2022/05/11 03:03:03;;;;;;;5.17;3.23;;;;;;;;;;5036884;28;20278;-64
2022/05/11 03:05:30;;;;;;;4.40;3.30;;;;;;;;;;5055381;28;20178;-64
2022/05/11 03:07:56;;;;;;;3.87;3.40;;;;;;;;;;5054663;28;20682;-64
2022/05/11 03:10:22;;;;;;;4.77;3.27;;;;;;;;;;5054674;28;20186;-64
2022/05/11 03:12:48;;;;;;;4.83;3.63;;;;;;;;;;5055306;28;20607;-64
2022/05/11 03:15:15;;;;;;;4.40;3.43;;;;;;;;;;5054505;28;20189;-64
2022/05/11 03:17:41;;;;;;;7.97;3.60;;;;;;;;;;5054949;28;20690;-64
2022/05/11 03:20:08;;;;;;;4.60;3.27;;;;;;;;;;5036961;28;20652;-64
2022/05/11 03:22:34;;;;;;;4.20;3.07;;;;;;;;;;5054402;28;20208;-64
2022/05/11 03:25:00;;;;;;;4.00;3.40;;;;;;;;;;5054280;28;20174;-64
2022/05/11 03:27:26;;;;;;;3.70;2.73;;;;;;;;;;5054294;28;20183;-64
2022/05/11 03:29:52;;;;;;;4.07;3.07;;;;;;;;;;5036706;28;20186;-64
2022/05/11 03:35:04;;;;;;;5.57;3.40;;;;;;;;;;5055627;28;20704;-65
2022/05/11 03:37:30;;;;;;;6.60;3.33;;;;;;;;;;5054718;28;20236;-64
2022/05/11 03:39:56;;;;;;;4.20;3.50;;;;;;;;;;5037263;28;20638;-64
2022/05/11 03:42:28;;;;;;;4.30;3.50;;;;;;;;;;5055558;28;20174;-64
2022/05/11 03:44:54;;;;;;;4.77;3.70;;;;;;;;;;5054885;28;20177;-64
2022/05/11 03:47:20;;;;;;;5.27;3.87;;;;;;;;;;5054655;28;20179;-64
2022/05/11 03:49:45;;;;;;;4.60;3.50;;;;;;;;;;5036321;28;20221;-64
2022/05/11 03:52:13;;;;;;;6.43;4.13;;;;;;;;;;5054301;28;20178;-64
2022/05/11 03:54:39;;;;;;;5.90;4.00;;;;;;;;;;5054288;28;20236;-64
2022/05/11 03:57:05;;;;;;;4.77;3.87;;;;;;;;;;5053782;28;20209;-64
2022/05/11 03:59:31;;;;;;;7.90;4.47;;;;;;;;;;5053954;28;20194;-65
2022/05/11 04:01:57;;;;;;;7.37;4.43;;;;;;;;;;5053863;28;20179;-64
2022/05/11 04:04:23;;;;;;;5.23;4.03;;;;;;;;;;5053920;28;20213;-64
2022/05/11 04:06:49;;;;;;;4.43;3.90;;;;;;;;;;5053969;28;20178;-64
2022/05/11 04:09:15;;;;;;;4.37;3.80;;;;;;;;;;5053658;28;20203;-64
2022/05/11 04:11:41;;;;;;;4.50;3.87;;;;;;;;;;5053553;28;20189;-64
2022/05/11 04:14:07;;;;;;;5.23;3.83;;;;;;;;;;5035675;28;20221;-64
2022/05/11 04:16:32;;;;;;;7.20;3.97;;;;;;;;;;5053714;28;20195;-64
2022/05/11 04:18:59;;;;;;;5.83;4.13;;;;;;;;;;5053324;28;20191;-64
2022/05/11 04:21:26;;;;;;;5.57;3.73;;;;;;;;;;5053425;28;20590;-65
2022/05/11 04:23:52;;;;;;;5.10;3.80;;;;;;;;;;5035634;28;20182;-65
2022/05/11 04:26:18;;;;;;;8.10;3.77;;;;;;;;;;5035551;28;20240;-65
2022/05/11 04:28:43;;;;;;;3.80;3.40;;;;;;;;;;5053320;28;20199;-65
2022/05/11 04:31:10;;;;;;;4.57;3.43;;;;;;;;;;5053465;28;20182;-63
2022/05/11 04:33:36;;;;;;;3.37;2.93;;;;;;;;;;5053254;28;20182;-63
2022/05/11 04:36:06;;;;;;;5.03;3.60;;;;;;;;;;5053841;28;20547;-63
2022/05/11 04:38:32;;;;;;;5.40;3.30;;;;;;;;;;5053146;28;20198;-64
2022/05/11 04:40:58;;;;;;;7.77;3.40;;;;;;;;;;5053228;28;20183;-64
2022/05/11 04:43:24;;;;;;;3.80;3.40;;;;;;;;;;5053149;28;20178;-65
2022/05/11 04:45:50;;;;;;;4.63;3.33;;;;;;;;;;5053203;28;20261;-64
2022/05/11 04:48:17;;;;;;;7.30;3.57;;;;;;;;;;5034887;28;20229;-64
2022/05/11 04:50:44;;;;;;;4.30;3.30;;;;;;;;;;5053102;28;20189;-64
2022/05/11 04:53:11;;;;;;;4.93;4.07;;;;;;;;;;5053030;28;20186;-64
2022/05/11 04:55:38;;;;;;;4.50;3.70;;;;;;;;;;5035005;28;20728;-63
2022/05/11 04:58:04;;;;;;;5.03;4.37;;;;;;;;;;5052939;28;20214;-64
2022/05/11 05:00:30;;;;;;;8.57;4.10;;;;;;;;;;5035011;28;20560;-64
2022/05/11 05:02:56;;;;;;;6.50;4.13;;;;;;;;;;5053160;28;20682;-64
2022/05/11 05:05:22;;;;;;;6.60;4.10;;;;;;;;;;5035142;28;20210;-63
2022/05/11 05:07:48;;;;;;;6.67;4.10;;;;;;;;;;5053089;28;20225;-64
2022/05/11 05:10:15;;;;;;;5.27;3.70;;;;;;;;;;5052767;28;20646;-64
2022/05/11 05:12:42;;;;;;;7.17;4.17;;;;;;;;;;5053347;28;20182;-64
2022/05/11 05:15:08;;;;;;;4.83;3.90;;;;;;;;;;5034968;28;20190;-64
2022/05/11 05:17:34;;;;;;;4.30;3.83;;;;;;;;;;5052495;28;20210;-65
2022/05/11 05:20:00;;;;;;;6.03;4.07;;;;;;;;;;5052649;28;20527;-64
2022/05/11 05:22:26;;;;;;;7.10;3.87;;;;;;;;;;5035676;28;20206;-65
2022/05/11 05:24:52;;;;;;;6.67;3.93;;;;;;;;;;5052746;28;20178;-64
2022/05/11 05:27:19;;;;;;;8.80;4.43;;;;;;;;;;5034831;28;20186;-64
2022/05/11 05:32:37;;;;;;;5.87;4.07;;;;;;;;;;5053074;28;20186;-64
2022/05/11 05:35:03;;;;;;;5.73;4.00;;;;;;;;;;5052682;28;20662;-64
2022/05/11 05:37:29;;;;;;;5.00;4.03;;;;;;;;;;5052858;28;20249;-65
2022/05/11 05:39:55;;;;;;;8.67;4.00;;;;;;;;;;5034631;28;20225;-65
2022/05/11 05:42:23;;;;;;;5.83;4.13;;;;;;;;;;5052540;28;20269;-64
2022/05/11 05:44:49;;;;;;;6.67;4.27;;;;;;;;;;5034547;28;20555;-64
2022/05/11 05:47:16;;;;;;;7.40;4.27;;;;;;;;;;5052666;28;20193;-64
2022/05/11 05:49:42;;;;;;;7.27;3.93;;;;;;;;;;5052412;28;20195;-64
2022/05/11 05:52:08;;;;;;;7.20;4.17;;;;;;;;;;5053270;28;20194;-64
2022/05/11 05:54:36;;;;;;;8.23;4.57;;;;;;;;;;5052459;28;20182;-64
2022/05/11 05:57:02;;;;;;;6.70;4.23;;;;;;;;;;5052475;28;20544;-64
2022/05/11 05:59:28;;;;;;;5.97;4.23;;;;;;;;;;5052935;28;20201;-66
2022/05/11 06:01:54;;;;;;;10.60;4.30;;;;;;;;;;5056318;28;20174;-64
2022/05/11 06:04:20;;;;;;;6.90;4.23;;;;;;;;;;5056049;28;20178;-66
2022/05/11 06:06:46;;;;;;;9.00;4.40;;;;;;;;;;5038015;28;20232;-65
2022/05/11 06:09:12;;;;;;;9.80;5.00;;;;;;;;;;5037921;28;20202;-65
2022/05/11 06:11:38;;;;;;;7.23;4.40;;;;;;;;;;5037964;28;20276;-64
2022/05/11 06:14:05;;;;;;;8.13;4.87;;;;;;;;;;5055868;28;20182;-65
2022/05/11 06:16:31;;;;;;;6.97;4.70;;;;;;;;;;5055922;28;20551;-65
2022/05/11 06:18:57;;;;;;;6.73;5.13;;;;;;;;;;5037788;28;20198;-65
2022/05/11 06:21:23;;;;;;;7.80;5.20;;;;;;;;;;5055687;28;20182;-65
2022/05/11 06:23:50;;;;;;;7.50;5.17;;;;;;;;;;5037594;28;20175;-64
2022/05/11 06:26:16;;;;;;;5.60;4.57;;;;;;;;;;5037665;28;20635;-64
2022/05/11 06:28:43;;;;;;;7.50;5.23;;;;;;;;;;5055444;28;20241;-64
2022/05/11 06:31:09;;;;;;;8.70;5.67;;;;;;;;;;5055721;28;20178;-64
2022/05/11 06:33:35;;;;;;;7.90;5.10;;;;;;;;;;5055807;28;20186;-64
2022/05/11 06:36:02;;;;;;;6.73;5.10;;;;;;;;;;5056077;28;20171;-63
2022/05/11 06:38:28;;;;;;;8.37;5.63;;;;;;;;;;5055852;28;20682;-63
2022/05/11 06:40:54;;;;;;;7.37;5.40;;;;;;;;;;5037895;28;20236;-62
2022/05/11 06:43:20;;;;;;;6.27;4.67;;;;;;;;;;5038006;28;20262;-64
2022/05/11 06:45:46;;;;;;;6.17;4.87;;;;;;;;;;5037613;28;20174;-63
2022/05/11 06:48:14;;;;;;;5.97;4.60;;;;;;;;;;5055403;28;20218;-64
2022/05/11 06:50:40;;;;;;;6.97;3.80;;;;;;;;;;5037527;28;20185;-63
2022/05/11 06:53:10;;;;;;;5.13;3.97;;;;;;;;;;5055251;28;20182;-64
2022/05/11 07:01:15;;;;;;;4.33;3.23;;;;;;;;;;5026669;28;20209;-64
2022/05/11 07:03:41;;;;;;;3.60;3.10;;;;;;;;;;5036926;28;20178;-64
2022/05/11 07:06:07;;;;;;;3.47;2.90;;;;;;;;;;5037229;28;20174;-64
2022/05/11 07:08:35;;;;;;;4.90;2.83;;;;;;;;;;5054892;28;20236;-64
2022/05/11 07:13:46;;;;;;;3.33;2.83;;;;;;;;;;5055137;28;20608;-64
2022/05/11 07:16:12;;;;;;;4.20;3.33;;;;;;;;;;5055286;28;20657;-64
2022/05/11 07:18:38;;;;;;;2.70;2.50;;;;;;;;;;5054944;28;20202;-64
2022/05/11 07:21:03;;;;;;;3.67;2.70;;;;;;;;;;5054828;28;20186;-64
2022/05/11 07:23:30;;;;;;;3.33;2.83;;;;;;;;;;5054733;28;20171;-64
2022/05/11 07:25:56;;;;;;;2.83;2.30;;;;;;;;;;5054457;28;20178;-64
2022/05/11 07:28:22;;;;;;;3.70;2.47;;;;;;;;;;5054405;28;20209;-64
2022/05/11 07:30:48;;;;;;;2.50;2.10;;;;;;;;;;5054627;28;20677;-64
2022/05/11 07:33:15;;;;;;;4.10;2.50;;;;;;;;;;5054342;28;20187;-64
2022/05/11 07:35:42;;;;;;;3.27;2.33;;;;;;;;;;5054303;28;20179;-64
2022/05/11 07:38:09;;;;;;;3.57;2.20;;;;;;;;;;5054528;28;20214;-64
2022/05/11 07:40:35;;;;;;;2.60;2.40;;;;;;;;;;5036224;28;20174;-64
2022/05/11 07:43:01;;;;;;;3.87;2.40;;;;;;;;;;5054063;28;20228;-64
2022/05/11 07:45:28;;;;;;;2.20;2.00;;;;;;;;;;5054153;28;20175;-64
2022/05/11 07:47:53;;;;;;;5.57;1.90;;;;;;;;;;5053855;28;20689;-64
2022/05/11 07:50:19;;;;;;;1.93;1.80;;;;;;;;;;5036428;28;20211;-64
2022/05/11 07:52:46;;;;;;;2.27;2.07;;;;;;;;;;5053824;28;20174;-64
2022/05/11 07:55:13;;;;;;;1.70;1.60;;;;;;;;;;5035948;28;20264;-64
2022/05/11 08:00:25;;;;;;;1.90;1.70;;;;;;;;;;5054135;28;20170;-64
2022/05/11 08:02:51;;;;;;;3.00;1.97;;;;;;;;;;5053742;28;20177;-64
2022/05/11 08:05:18;;;;;;;4.20;1.87;;;;;;;;;;5035734;28;20174;-64
2022/05/11 08:07:46;;;;;;;1.97;1.63;;;;;;;;;;5036538;28;20206;-64
2022/05/11 08:10:18;;;;;;;2.37;2.00;;;;;;;;;;5053654;28;20186;-64
2022/05/11 08:12:44;;;;;;;2.53;2.10;;;;;;;;;;5053560;28;20166;-64
2022/05/11 08:15:11;;;;;;;2.53;2.00;;;;;;;;;;5054106;28;20186;-64
2022/05/11 08:17:37;;;;;;;2.13;1.90;;;;;;;;;;5053405;28;20631;-64
2022/05/11 08:20:07;;;;;;;2.63;2.07;;;;;;;;;;5053468;28;20266;-65
2022/05/11 08:22:33;;;;;;;2.43;2.07;;;;;;;;;;5035121;28;20224;-64
2022/05/11 08:24:59;;;;;;;3.77;2.17;;;;;;;;;;5053369;28;20711;-64
2022/05/11 08:27:26;;;;;;;3.53;2.30;;;;;;;;;;5053245;28;20213;-64
2022/05/11 08:35:21;;;;;;;2.87;2.13;;;;;;;;;;5053668;28;20711;-65
2022/05/11 08:37:48;;;;;;;2.53;2.33;;;;;;;;;;5035352;28;20214;-64
2022/05/11 08:40:18;;;;;;;3.03;2.10;;;;;;;;;;5053427;28;20240;-65
2022/05/11 08:42:44;;;;;;;2.53;2.27;;;;;;;;;;5035521;28;20178;-65
2022/05/11 08:45:10;;;;;;;5.77;2.20;;;;;;;;;;5053250;28;20175;-64
2022/05/11 08:47:50;;;;;;;2.73;2.07;;;;;;;;;;5035144;28;20214;-64
2022/05/11 08:50:18;;;;;;;2.87;2.00;;;;;;;;;;5035256;28;20182;-64
2022/05/11 08:53:02;;;;;;;3.03;2.10;;;;;;;;;;5035244;28;20182;-64
2022/05/11 08:55:40;;;;;;;2.47;2.27;;;;;;;;;;5035176;28;20726;-64
2022/05/11 08:58:10;;;;;;;2.90;2.30;;;;;;;;;;5053004;28;20206;-64
2022/05/11 09:00:39;;;;;;;3.23;2.40;;;;;;;;;;5034965;28;20185;-64
2022/05/11 09:03:13;;;;;;;2.60;2.40;;;;;;;;;;5053094;28;20171;-64
2022/05/11 09:05:39;;;;;;;2.67;2.17;;;;;;;;;;5052914;28;20174;-64
2022/05/11 09:08:06;;;;;;;3.07;2.40;;;;;;;;;;5053206;28;20210;-64
2022/05/11 09:10:36;;;;;;;2.37;2.17;;;;;;;;;;5052865;28;20206;-64
2022/05/11 09:13:04;;;;;;;3.13;2.40;;;;;;;;;;5052878;28;20167;-64
2022/05/11 09:15:46;;;;;;;4.63;2.67;;;;;;;;;;5052881;28;20275;-65
2022/05/11 09:18:13;;;;;;;5.07;2.53;;;;;;;;;;5053055;28;20291;-65
2022/05/11 09:20:44;;;;;;;3.80;2.40;;;;;;;;;;5034941;28;20185;-64
2022/05/11 09:23:10;;;;;;;3.13;2.37;;;;;;;;;;5053235;28;20167;-65
2022/05/11 09:25:37;;;;;;;3.13;2.60;;;;;;;;;;5034996;28;20294;-65
2022/05/11 09:28:14;;;;;;;3.90;2.77;;;;;;;;;;5059917;23;20321;-69
2022/05/11 09:30:42;;;;;;;2.90;2.40;;;;;;;;;;5035135;28;20264;-68
2022/05/11 09:33:23;;;;;;;3.60;2.40;;;;;;;;;;5053017;28;20190;-68
2022/05/11 09:35:49;;;;;;;5.80;2.30;;;;;;;;;;5055215;28;20163;-67
2022/05/11 09:38:19;;;;;;;4.03;2.77;;;;;;;;;;5056643;28;20225;-67
2022/05/11 09:40:54;;;;;;;2.63;2.43;;;;;;;;;;5039066;28;20654;-66
2022/05/11 09:43:27;;;;;;;5.40;2.77;;;;;;;;;;5056662;28;20175;-66
2022/05/11 09:45:53;;;;;;;4.43;2.23;;;;;;;;;;5056677;28;20174;-67
2022/05/11 09:48:22;;;;;;;2.37;2.17;;;;;;;;;;5056600;28;20230;-67
2022/05/11 09:50:52;;;;;;;3.13;2.50;;;;;;;;;;5056644;28;20179;-66
2022/05/11 09:53:27;;;;;;;8.77;2.80;;;;;;;;;;5056779;28;20163;-67
2022/05/11 09:55:54;;;;;;;2.87;2.50;;;;;;;;;;5038218;28;20672;-67
2022/05/11 09:58:28;;;;;;;2.70;2.50;;;;;;;;;;5055966;28;20210;-67
2022/05/11 10:01:06;;;;;;;2.63;2.20;;;;;;;;;;5056288;28;20634;-67
2022/05/11 10:03:32;;;;;;;2.17;1.97;;;;;;;;;;5056206;28;20166;-67
2022/05/11 10:05:58;;;;;;;4.20;2.73;;;;;;;;;;5055959;28;20178;-67
2022/05/11 10:08:27;;;;;;;3.67;2.30;;;;;;;;;;5038891;28;20210;-66
2022/05/11 10:10:56;;;;;;;4.60;2.53;;;;;;;;;;5056276;28;20182;-67
2022/05/11 10:13:23;;;;;;;2.93;2.17;;;;;;;;;;5038196;28;20200;-67
2022/05/11 10:21:50;;;;;;;3.33;2.70;;;;;;;;;;5056322;28;20174;-66
2022/05/11 10:24:34;;;;;;;3.20;2.67;;;;;;;;;;5055555;28;20174;-67
2022/05/11 10:27:19;;;;;;;2.67;2.33;;;;;;;;;;5055533;28;20193;-67
2022/05/11 10:29:45;;;;;;;4.90;2.87;;;;;;;;;;5055796;28;20170;-67
2022/05/11 10:32:13;;;;;;;2.80;2.60;;;;;;;;;;5055346;28;20182;-67
2022/05/11 10:34:46;;;;;;;3.23;2.30;;;;;;;;;;5055412;28;20253;-67
2022/05/11 10:37:25;;;;;;;4.43;2.60;;;;;;;;;;5055140;28;20675;-67
2022/05/11 10:39:57;;;;;;;3.33;2.13;;;;;;;;;;5055343;28;20613;-67
2022/05/11 10:42:46;;;;;;;6.93;2.40;;;;;;;;;;5055642;28;20181;-67
2022/05/11 10:45:24;;;;;;;4.67;2.47;;;;;;;;;;5037481;28;20169;-66
2022/05/11 10:47:49;;;;;;;4.77;2.83;;;;;;;;;;5055180;28;20615;-67
2022/05/11 10:50:20;;;;;;;2.87;2.37;;;;;;;;;;5055600;28;20257;-67
2022/05/11 10:52:46;;;;;;;4.10;2.57;;;;;;;;;;5037425;28;20267;-67
2022/05/11 10:55:18;;;;;;;2.70;2.50;;;;;;;;;;5055087;28;20217;-67
2022/05/11 10:57:50;;;;;;;3.40;2.00;;;;;;;;;;5037183;28;20646;-67
2022/05/11 11:00:18;;;;;;;2.90;2.47;;;;;;;;;;5037223;28;20646;-66
2022/05/11 11:03:07;;;;;;;4.20;2.20;;;;;;;;;;5055380;28;20178;-67
2022/05/11 11:05:42;;;;;;;2.67;2.30;;;;;;;;;;5055051;28;20241;-67
2022/05/11 11:08:08;;;;;;;3.47;2.50;;;;;;;;;;5036972;28;20640;-67
2022/05/11 11:10:42;;;;;;;3.83;2.20;;;;;;;;;;5054903;28;20182;-67
2022/05/11 11:13:27;;;;;;;2.93;2.47;;;;;;;;;;5036984;28;20169;-68
2022/05/11 11:15:53;;;;;;;2.60;2.40;;;;;;;;;;5054853;28;20178;-67
2022/05/11 11:18:23;;;;;;;5.27;2.53;;;;;;;;;;5054768;28;20229;-67
2022/05/11 11:20:51;;;;;;;3.83;2.47;;;;;;;;;;5055614;28;20167;-67
2022/05/11 11:23:17;;;;;;;2.63;2.43;;;;;;;;;;5054653;28;20181;-66
2022/05/11 11:25:52;;;;;;;4.17;2.40;;;;;;;;;;5054679;28;20174;-67
2022/05/11 11:28:18;;;;;;;2.30;2.10;;;;;;;;;;5054635;28;20685;-68
2022/05/11 11:30:59;;;;;;;2.60;2.33;;;;;;;;;;5055099;28;20183;-68
2022/05/11 11:33:30;;;;;;;2.43;2.20;;;;;;;;;;5036806;28;20182;-68
2022/05/11 11:35:58;;;;;;;2.80;2.40;;;;;;;;;;5036832;28;20175;-67
2022/05/11 11:38:30;;;;;;;2.83;2.30;;;;;;;;;;5054515;28;20605;-67
2022/05/11 11:41:14;;;;;;;1.90;1.77;;;;;;;;;;5054403;28;20204;-68
2022/05/11 11:43:43;;;;;;;2.55;2.35;;;;;;;;;;5053552;28;20439;-67
2022/05/11 11:46:10;;;;;;;4.53;2.10;;;;;;;;;;5054739;28;20171;-67
2022/05/11 11:48:38;;;;;;;5.03;1.90;;;;;;;;;;5054547;28;20197;-67
2022/05/11 11:51:11;;;;;;;3.13;2.00;;;;;;;;;;5054193;28;20239;-67
2022/05/11 11:53:56;;;;;;;3.13;1.90;;;;;;;;;;5054632;28;20163;-68
2022/05/11 11:56:25;;;;;;;2.10;2.00;;;;;;;;;;5054231;28;20220;-67
2022/05/11 11:59:05;;;;;;;3.27;2.20;;;;;;;;;;5035613;28;20285;-68
2022/05/11 12:01:33;;;;;;;2.67;1.80;;;;;;;;;;5036997;28;20587;-67
2022/05/11 12:04:02;;;;;;;1.87;1.70;;;;;;;;;;5054283;28;20257;-68
2022/05/11 12:15:01;;;;;;;2.43;1.70;;;;;;;;;;5054185;28;20220;-67
2022/05/11 12:17:30;;;;;;;1.93;1.83;;;;;;;;;;5053840;28;20208;-67
2022/05/11 12:19:57;;;;;;;2.10;1.67;;;;;;;;;;5054002;28;20228;-67
2022/05/11 12:22:25;;;;;;;3.03;1.93;;;;;;;;;;5054208;28;20228;-68
2022/05/11 12:25:11;;;;;;;3.30;2.03;;;;;;;;;;5054473;28;20250;-67
2022/05/11 12:27:37;;;;;;;4.97;1.90;;;;;;;;;;5054503;28;20217;-67
2022/05/11 12:30:06;;;;;;;2.30;1.87;;;;;;;;;;5054212;28;20684;-67
2022/05/11 12:32:33;;;;;;;3.93;1.97;;;;;;;;;;5035617;28;20548;-67
2022/05/11 12:35:07;;;;;;;3.17;1.93;;;;;;;;;;5053331;28;20557;-67
2022/05/11 12:37:35;;;;;;;4.37;1.83;;;;;;;;;;5053323;28;20209;-67
2022/05/11 12:40:05;;;;;;;3.00;2.07;;;;;;;;;;5053156;28;20177;-67
2022/05/11 12:42:36;;;;;;;2.10;1.80;;;;;;;;;;5053428;28;20197;-67
2022/05/11 12:45:03;;;;;;;3.83;2.10;;;;;;;;;;5053877;28;20604;-66
2022/05/11 12:47:29;;;;;;;1.87;1.63;;;;;;;;;;5053579;28;20206;-68
2022/05/11 12:49:55;;;;;;;2.53;2.00;;;;;;;;;;5035181;28;20182;-67
2022/05/11 12:52:24;;;;;;;2.60;1.80;;;;;;;;;;5053459;28;20189;-67
2022/05/11 12:54:58;;;;;;;2.57;1.77;;;;;;;;;;5053135;28;20273;-67
2022/05/11 12:57:24;;;;;;;2.17;1.90;;;;;;;;;;5053295;28;20233;-67
2022/05/11 12:59:51;;;;;;;4.33;2.07;;;;;;;;;;5035204;28;20232;-68
2022/05/11 13:02:26;;;;;;;1.97;1.77;;;;;;;;;;5053238;28;20542;-67
2022/05/11 13:04:56;;;;;;;2.00;1.80;;;;;;;;;;5053272;28;20159;-67
2022/05/11 13:07:24;;;;;;;2.47;2.17;;;;;;;;;;5053554;28;20265;-68
2022/05/11 13:09:52;;;;;;;4.93;1.83;;;;;;;;;;5055461;28;20204;-67
2022/05/11 13:12:18;;;;;;;2.83;2.03;;;;;;;;;;5039029;28;20178;-68
2022/05/11 13:14:46;;;;;;;2.57;1.90;;;;;;;;;;5057027;28;20189;-66
2022/05/11 13:17:18;;;;;;;3.37;1.87;;;;;;;;;;5039105;28;20573;-67
2022/05/11 13:19:51;;;;;;;2.90;2.60;;;;;;;;;;5057166;28;20167;-67
2022/05/11 13:22:24;;;;;;;3.73;2.17;;;;;;;;;;5057111;28;20165;-68
2022/05/11 13:24:52;;;;;;;3.80;1.93;;;;;;;;;;5039142;28;20172;-68
2022/05/11 13:27:38;;;;;;;2.40;2.07;;;;;;;;;;5057146;28;20634;-68
2022/05/11 13:30:10;;;;;;;2.80;2.10;;;;;;;;;;5057182;28;20275;-68
2022/05/11 13:32:45;;;;;;;2.27;1.90;;;;;;;;;;5056803;28;20552;-67
2022/05/11 13:35:19;;;;;;;3.33;1.90;;;;;;;;;;5056736;28;20177;-68
2022/05/11 13:37:54;;;;;;;3.07;2.20;;;;;;;;;;5056791;28;20285;-67
2022/05/11 13:40:50;;;;;;;3.47;1.97;;;;;;;;;;5038763;28;20226;-68
2022/05/11 13:43:18;;;;;;;3.33;1.80;;;;;;;;;;5040134;28;20194;-69
2022/05/11 13:45:44;;;;;;;;;;;;;;;;;;5039189;28;20032;-68
2022/05/11 13:48:13;;;;;;;;;;;;;;;;;;5056756;28;20281;-68
2022/05/11 13:50:38;;;;;;;;;;;;;;;;;;5057126;28;20410;-67
2022/05/11 13:53:04;;;;;;;;;;;;;;;;;;5056805;28;19908;-69
2022/05/11 13:55:38;;;;;;;2.92;2.60;;;;;;;;;;5056527;28;20260;-68
2022/05/11 13:58:22;;;;;;;2.53;2.33;;;;;;;;;;5055886;28;20218;-68
2022/05/11 14:00:49;;;;;;;4.93;2.80;;;;;;;;;;5056470;28;20248;-68
2022/05/11 14:03:16;;;;;;;5.15;2.47;;;;;;;;;;5038304;28;20182;-67
2022/05/11 14:05:45;;;;;;;3.92;2.50;;;;;;;;;;5038275;28;20755;-69
2022/05/11 14:08:12;;;;;;;2.33;2.00;;;;;;;;;;5056030;28;20222;-67
2022/05/11 14:10:38;;;;;;;2.22;2.03;;;;;;;;;;5038355;28;20178;-68
2022/05/11 14:13:04;;;;;;;2.17;1.98;;;;;;;;;;5056302;28;20185;-68
2022/05/11 14:15:30;;;;;;;3.33;1.90;;;;;;;;;;5038166;28;20178;-69
2022/05/11 14:17:56;;;;;;;3.03;1.88;;;;;;;;;;5055785;28;20252;-69
2022/05/11 14:20:24;;;;;;;7.90;1.77;;;;;;;;;;5055274;28;20198;-68
2022/05/11 14:22:50;;;;;;;3.75;1.73;;;;;;;;;;5055706;28;20193;-68
2022/05/11 14:25:16;;;;;;;2.95;1.73;;;;;;;;;;5037862;28;20538;-68
2022/05/11 14:27:43;;;;;;;2.55;1.70;;;;;;;;;;5037504;28;20775;-68
2022/05/11 14:30:10;;;;;;;8.68;2.05;;;;;;;;;;5056116;28;20167;-67
2022/05/11 14:32:37;;;;;;;1.80;1.63;;;;;;;;;;5055797;28;20175;-68
2022/05/11 14:35:05;;;;;;;1.63;1.52;;;;;;;;;;5055686;28;20198;-68
2022/05/11 14:37:31;;;;;;;1.98;1.45;;;;;;;;;;5037752;28;20750;-67
2022/05/11 14:40:01;;;;;;;2.83;1.85;;;;;;;;;;5037772;28;20205;-67
2022/05/11 14:42:29;;;;;;;3.65;1.60;;;;;;;;;;5055966;28;20236;-67
2022/05/11 14:44:55;;;;;;;6.83;1.73;;;;;;;;;;5037600;28;20680;-68
2022/05/11 14:47:21;;;;;;;1.70;1.45;;;;;;;;;;5055188;28;20214;-68
2022/05/11 14:49:47;;;;;;;1.80;1.70;;;;;;;;;;5037505;28;20193;-68
2022/05/11 14:52:13;;;;;;;2.00;1.60;;;;;;;;;;5055437;28;20687;-68
2022/05/11 14:54:38;;;;;;;1.80;1.70;;;;;;;;;;5055246;28;20261;-69
2022/05/11 15:02:35;;;;;;;4.90;2.30;;;;;;;;;;5055455;28;20257;-67
2022/05/11 15:05:02;;;;;;;1.50;1.40;;;;;;;;;;5055269;28;20170;-67
2022/05/11 15:07:28;;;;;;;1.60;1.50;;;;;;;;;;5054932;28;20197;-68
2022/05/11 15:09:56;;;;;;;2.63;1.60;;;;;;;;;;5055404;28;20654;-68
2022/05/11 15:15:07;;;;;;;1.77;1.67;;;;;;;;;;5055521;28;20224;-68
2022/05/11 15:17:33;;;;;;;1.73;1.50;;;;;;;;;;5054711;28;20690;-67
2022/05/11 15:20:03;;;;;;;1.77;1.67;;;;;;;;;;5036649;28;20178;-67
2022/05/11 15:22:29;;;;;;;3.20;1.80;;;;;;;;;;5055196;28;20163;-68
2022/05/11 15:24:55;;;;;;;1.60;1.50;;;;;;;;;;5036824;28;20232;-68
2022/05/11 15:27:21;;;;;;;3.07;1.70;;;;;;;;;;5054701;28;20277;-68
2022/05/11 15:29:47;;;;;;;1.98;1.52;;;;;;;;;;5054640;28;20175;-67
2022/05/11 15:32:24;;;;;;;1.92;1.52;;;;;;;;;;5035645;28;20183;-68
2022/05/11 15:34:50;;;;;;;1.60;1.50;;;;;;;;;;5054878;28;20602;-68
2022/05/11 15:37:17;;;;;;;2.33;1.60;;;;;;;;;;5036201;28;20210;-68